createdAt,value
2023-02-27T00:00:17.572Z,98437.91
2023-02-27T00:02:18.988Z,98431.19
2023-02-27T00:04:20.353Z,98435.50
2023-02-27T00:06:21.699Z,98434.81
2023-02-27T00:08:23.041Z,98427.19
2023-02-27T00:10:24.381Z,98435.75
2023-02-27T00:12:25.668Z,98434.97
2023-02-27T00:14:27.008Z,98433.25
2023-02-27T00:16:28.478Z,98437.63
2023-02-27T00:18:29.780Z,98430.84
2023-02-27T00:20:32.370Z,98436.84
2023-02-27T00:22:33.699Z,98434.28
2023-02-27T00:24:35.122Z,98441.13
2023-02-27T00:26:37.923Z,98436.84
2023-02-27T00:28:39.248Z,98442.78
2023-02-27T00:30:40.626Z,98452.16
2023-02-27T00:32:42.048Z,98447.06
2023-02-27T00:34:43.778Z,98449.56
2023-02-27T00:36:45.160Z,98452.97
2023-02-27T00:38:46.489Z,98447.81
2023-02-27T00:40:47.824Z,98451.16
2023-02-27T00:42:49.537Z,98457.84
2023-02-27T00:44:50.851Z,98453.50
2023-02-27T00:46:52.261Z,98454.28
2023-02-27T00:48:53.634Z,98451.69
2023-02-27T00:50:54.923Z,98454.19
2023-02-27T00:52:56.264Z,98445.66
2023-02-27T00:54:57.663Z,98447.31
2023-02-27T00:56:59.063Z,98449.94
2023-02-27T00:59:00.358Z,98438.00
2023-02-27T01:01:01.765Z,98444.88
2023-02-27T01:03:03.637Z,98444.91
2023-02-27T01:05:04.920Z,98437.31
2023-02-27T01:07:06.253Z,98306.03
2023-02-27T01:09:07.585Z,98434.00
2023-02-27T01:11:09.000Z,98433.22
2023-02-27T01:13:11.317Z,98442.59
2023-02-27T01:15:12.758Z,98434.97
2023-02-27T01:17:14.102Z,98435.88
2023-02-27T01:19:15.560Z,98439.28
2023-02-27T01:21:16.976Z,98437.63
2023-02-27T01:23:18.320Z,98436.75
2023-02-27T01:25:19.619Z,98440.19
2023-02-27T01:27:20.951Z,98439.34
2023-02-27T01:29:22.251Z,98441.09
2023-02-27T01:31:23.723Z,98437.72
2023-02-27T01:33:25.119Z,98434.38
2023-02-27T01:35:26.496Z,98438.66
2023-02-27T01:37:27.972Z,98435.31
2023-02-27T01:39:29.441Z,98438.72
2023-02-27T01:41:31.610Z,98437.88
2023-02-27T01:43:32.903Z,98431.09
2023-02-27T01:45:34.449Z,98439.56
2023-02-27T01:47:35.800Z,98432.75
2023-02-27T01:49:37.132Z,98432.75
2023-02-27T01:51:38.467Z,98434.34
2023-02-27T01:53:39.765Z,98431.72
2023-02-27T01:55:41.050Z,98439.28
2023-02-27T01:57:42.420Z,98431.56
2023-02-27T01:59:43.744Z,98443.34
2023-02-27T02:01:45.071Z,98439.84
2023-02-27T02:03:46.399Z,98442.34
2023-02-27T02:05:47.723Z,98437.03
2023-02-27T02:07:49.098Z,98441.25
2023-02-27T02:09:50.863Z,98437.78
2023-02-27T02:11:52.186Z,98447.13
2023-02-27T02:13:53.526Z,98446.25
2023-02-27T02:15:54.866Z,98440.28
2023-02-27T02:17:56.155Z,98442.09
2023-02-27T02:19:57.500Z,98446.38
2023-02-27T02:21:58.792Z,98441.34
2023-02-27T02:24:00.101Z,98450.78
2023-02-27T02:26:02.249Z,98447.44
2023-02-27T02:28:03.777Z,98445.78
2023-02-27T02:30:05.300Z,98446.75
2023-02-27T02:32:06.690Z,98456.97
2023-02-27T02:34:08.034Z,98454.25
2023-02-27T02:36:09.376Z,98455.91
2023-02-27T02:38:10.783Z,98446.53
2023-02-27T02:40:12.075Z,98458.47
2023-02-27T02:42:13.417Z,98456.00
2023-02-27T02:44:14.771Z,98457.69
2023-02-27T02:46:16.089Z,98462.84
2023-02-27T02:48:17.510Z,98463.69
2023-02-27T02:50:18.861Z,98461.19
2023-02-27T02:52:20.193Z,98455.22
2023-02-27T02:54:21.498Z,98460.34
2023-02-27T02:56:22.790Z,98461.19
2023-02-27T02:58:24.125Z,98455.19
2023-02-27T03:00:25.414Z,98457.78
2023-02-27T03:02:26.737Z,98457.78
2023-02-27T03:04:28.266Z,98464.66
2023-02-27T03:06:30.842Z,98463.81
2023-02-27T03:08:32.169Z,98463.00
2023-02-27T03:10:33.656Z,98466.38
2023-02-27T03:12:35.009Z,98474.03
2023-02-27T03:14:36.321Z,98480.69
2023-02-27T03:16:37.681Z,98477.28
2023-02-27T03:18:39.002Z,98482.38
2023-02-27T03:20:40.359Z,98481.50
2023-02-27T03:22:41.753Z,98483.16
2023-02-27T03:24:43.084Z,98482.28
2023-02-27T03:26:44.379Z,98483.94
2023-02-27T03:28:45.684Z,98482.97
2023-02-27T03:30:47.112Z,98481.22
2023-02-27T03:32:49.344Z,98487.25
2023-02-27T03:34:50.700Z,98486.50
2023-02-27T03:36:52.084Z,98493.47
2023-02-27T03:38:53.376Z,98496.16
2023-02-27T03:40:54.743Z,98495.44
2023-02-27T03:42:56.079Z,98487.00
2023-02-27T03:44:57.434Z,98491.31
2023-02-27T03:46:58.737Z,98482.84
2023-02-27T03:49:00.033Z,98481.94
2023-02-27T03:51:01.391Z,98481.09
2023-02-27T03:53:02.741Z,98483.56
2023-02-27T03:55:04.387Z,98483.59
2023-02-27T03:57:05.714Z,98483.59
2023-02-27T03:59:07.034Z,98489.56
2023-02-27T04:01:08.358Z,98490.41
2023-02-27T04:03:09.719Z,98487.06
2023-02-27T04:05:11.091Z,98497.28
2023-02-27T04:07:25.029Z,98486.19
2023-02-27T04:09:26.400Z,98493.03
2023-02-27T04:11:28.059Z,98498.13
2023-02-27T04:13:29.611Z,98493.03
2023-02-27T04:15:30.939Z,98497.28
2023-02-27T04:17:32.273Z,98496.44
2023-02-27T04:19:33.615Z,98503.16
2023-02-27T04:21:34.936Z,98500.56
2023-02-27T04:23:36.240Z,98511.56
2023-02-27T04:25:37.702Z,98507.22
2023-02-27T04:27:38.990Z,98507.22
2023-02-27T04:29:40.324Z,98505.41
2023-02-27T04:31:41.672Z,98513.84
2023-02-27T04:33:43.083Z,98519.69
2023-02-27T04:35:44.427Z,98523.00
2023-02-27T04:37:45.722Z,98524.72
2023-02-27T04:39:47.070Z,98520.50
2023-02-27T04:41:48.417Z,98527.34
2023-02-27T04:43:49.758Z,98533.34
2023-02-27T04:45:51.095Z,98532.59
2023-02-27T04:47:52.449Z,98531.75
2023-02-27T04:49:53.797Z,98534.38
2023-02-27T04:51:55.084Z,98535.19
2023-02-27T04:53:56.398Z,98539.53
2023-02-27T04:55:57.727Z,98538.66
2023-02-27T04:57:59.044Z,98542.06
2023-02-27T05:00:00.400Z,98538.72
2023-02-27T05:02:02.816Z,98548.19
2023-02-27T05:04:04.346Z,98538.94
2023-02-27T05:06:05.652Z,98546.72
2023-02-27T05:08:06.996Z,98549.41
2023-02-27T05:10:08.379Z,98546.94
2023-02-27T05:12:09.668Z,98548.78
2023-02-27T05:14:10.979Z,98553.16
2023-02-27T05:16:12.333Z,98561.75
2023-02-27T05:18:13.723Z,98562.66
2023-02-27T05:20:15.131Z,98560.06
2023-02-27T05:22:16.464Z,98558.31
2023-02-27T05:24:17.762Z,98561.72
2023-02-27T05:26:19.111Z,98563.44
2023-02-27T05:28:23.167Z,98558.31
2023-02-27T05:30:24.746Z,98556.59
2023-02-27T05:32:26.227Z,98560.81
2023-02-27T05:34:27.586Z,98569.34
2023-02-27T05:36:28.871Z,98572.63
2023-02-27T05:38:30.168Z,98559.00
2023-02-27T05:40:31.497Z,98558.09
2023-02-27T05:42:32.828Z,98558.06
2023-02-27T05:44:34.171Z,98555.41
2023-02-27T05:46:35.576Z,98558.72
2023-02-27T05:48:36.971Z,98558.66
2023-02-27T05:50:38.301Z,98553.44
2023-02-27T05:52:39.630Z,98560.97
2023-02-27T05:54:40.923Z,98566.91
2023-02-27T05:56:42.218Z,98559.97
2023-02-27T05:58:43.572Z,98577.03
2023-02-27T06:00:44.951Z,98579.47
2023-02-27T06:02:46.360Z,98585.41
2023-02-27T06:04:47.812Z,98593.91
2023-02-27T06:06:49.127Z,98593.94
2023-02-27T06:08:50.503Z,98593.97
2023-02-27T06:10:51.977Z,98603.41
2023-02-27T06:12:53.289Z,98600.03
2023-02-27T06:14:54.604Z,98600.06
2023-02-27T06:16:55.956Z,98606.06
2023-02-27T06:18:57.319Z,98607.72
2023-02-27T06:20:58.661Z,98602.59
2023-02-27T06:23:00.013Z,98603.53
2023-02-27T06:25:01.367Z,98611.28
2023-02-27T06:27:02.814Z,98601.91
2023-02-27T06:29:04.133Z,98604.44
2023-02-27T06:31:05.580Z,98600.25
2023-02-27T06:33:07.045Z,98603.66
2023-02-27T06:35:08.390Z,98595.06
2023-02-27T06:37:09.731Z,98600.19
2023-02-27T06:39:11.127Z,98605.34
2023-02-27T06:41:12.673Z,98602.84
2023-02-27T06:43:14.909Z,98596.91
2023-02-27T06:45:16.259Z,98611.41
2023-02-27T06:47:18.123Z,98610.59
2023-02-27T06:49:19.478Z,98614.84
2023-02-27T06:51:20.810Z,98615.75
2023-02-27T06:53:22.223Z,98616.59
2023-02-27T06:55:25.615Z,98615.72
2023-02-27T06:57:26.949Z,98611.44
2023-02-27T06:59:28.358Z,98621.69
2023-02-27T07:01:29.758Z,98621.69
2023-02-27T07:03:31.133Z,98627.59
2023-02-27T07:05:32.427Z,98620.78
2023-02-27T07:07:37.923Z,98615.56
2023-02-27T07:09:40.042Z,98621.50
2023-02-27T07:11:41.504Z,98621.50
2023-02-27T07:13:42.834Z,98609.53
2023-02-27T07:15:44.736Z,98617.91
2023-02-27T07:17:46.048Z,98618.72
2023-02-27T07:19:47.348Z,98616.88
2023-02-27T07:21:48.694Z,98620.28
2023-02-27T07:23:49.994Z,98616.81
2023-02-27T07:25:51.386Z,98620.09
2023-02-27T07:27:52.679Z,98623.47
2023-02-27T07:29:56.670Z,98617.50
2023-02-27T07:31:58.080Z,98607.09
2023-02-27T07:33:59.410Z,98617.63
2023-02-27T07:36:00.836Z,98622.94
2023-02-27T07:38:02.165Z,98631.72
2023-02-27T07:40:03.935Z,98622.53
2023-02-27T07:42:05.282Z,98626.91
2023-02-27T07:44:09.719Z,98621.88
2023-02-27T07:46:11.100Z,98627.06
2023-02-27T07:48:12.464Z,98626.31
2023-02-27T07:50:14.205Z,98628.03
2023-02-27T07:52:15.521Z,98631.50
2023-02-27T07:54:16.813Z,98631.56
2023-02-27T07:56:18.318Z,98635.81
2023-02-27T07:58:19.680Z,98634.13
2023-02-27T08:00:22.345Z,98641.81
2023-02-27T08:02:23.681Z,98654.50
2023-02-27T08:04:25.073Z,98650.31
2023-02-27T08:06:26.725Z,98664.38
2023-02-27T08:08:29.525Z,98664.84
2023-02-27T08:10:30.821Z,98658.75
2023-02-27T08:12:32.140Z,98660.94
2023-02-27T08:14:33.491Z,98659.66
2023-02-27T08:16:34.852Z,98651.38
2023-02-27T08:18:36.237Z,98656.78
2023-02-27T08:20:37.541Z,98663.19
2023-02-27T08:22:38.900Z,98656.16
2023-02-27T08:24:40.599Z,98657.66
2023-02-27T08:26:41.978Z,98657.50
2023-02-27T08:28:43.295Z,98655.69
2023-02-27T08:30:45.084Z,98655.56
2023-02-27T08:32:46.415Z,98663.09
2023-02-27T08:34:47.756Z,98664.75
2023-02-27T08:36:49.057Z,98667.22
2023-02-27T08:38:50.359Z,98669.66
2023-02-27T08:40:53.363Z,98669.59
2023-02-27T08:42:54.667Z,98672.16
2023-02-27T08:44:56.514Z,98667.81
2023-02-27T08:46:57.818Z,98667.81
2023-02-27T08:48:59.392Z,98674.63
2023-02-27T08:51:00.728Z,98679.66
2023-02-27T08:53:02.231Z,98681.41
2023-02-27T08:55:03.660Z,98687.41
2023-02-27T08:57:04.977Z,98688.28
2023-02-27T08:59:06.332Z,98696.84
2023-02-27T09:01:07.678Z,98697.75
2023-02-27T09:03:09.135Z,98699.59
2023-02-27T09:05:11.447Z,98698.78
2023-02-27T09:07:13.321Z,98699.69
2023-02-27T09:09:14.617Z,98697.25
2023-02-27T09:11:15.959Z,98700.81
2023-02-27T09:13:17.350Z,98704.31
2023-02-27T09:15:18.733Z,98695.00
2023-02-27T09:17:20.084Z,98698.47
2023-02-27T09:19:21.624Z,98694.28
2023-02-27T09:21:24.694Z,98702.00
2023-02-27T09:23:26.118Z,98697.75
2023-02-27T09:25:27.399Z,98691.88
2023-02-27T09:27:28.803Z,98695.31
2023-02-27T09:29:30.098Z,98689.38
2023-02-27T09:31:33.419Z,98696.19
2023-02-27T09:33:35.217Z,98697.94
2023-02-27T09:35:37.457Z,98700.50
2023-02-27T09:37:39.409Z,98694.56
2023-02-27T09:39:40.728Z,98699.66
2023-02-27T09:41:42.029Z,98696.28
2023-02-27T09:43:46.299Z,98700.56
2023-02-27T09:45:47.636Z,98698.88
2023-02-27T09:47:50.756Z,98699.75
2023-02-27T09:49:52.059Z,98698.91
2023-02-27T09:51:53.552Z,98704.88
2023-02-27T09:53:54.863Z,98699.75
2023-02-27T09:55:56.211Z,98698.91
2023-02-27T09:57:57.504Z,98701.47
2023-02-27T09:59:58.838Z,98701.44
2023-02-27T10:02:00.914Z,98705.72
2023-02-27T10:04:02.272Z,98699.72
2023-02-27T10:06:06.246Z,98715.84
2023-02-27T10:08:08.366Z,98706.38
2023-02-27T10:10:09.680Z,98713.94
2023-02-27T10:12:10.994Z,98722.31
2023-02-27T10:14:12.296Z,98721.38
2023-02-27T10:16:13.636Z,98720.44
2023-02-27T10:18:26.193Z,98728.06
2023-02-27T10:20:29.669Z,98728.78
2023-02-27T10:22:31.040Z,98738.09
2023-02-27T10:24:32.470Z,98737.19
2023-02-27T10:26:33.836Z,98733.84
2023-02-27T10:28:35.157Z,98729.56
2023-02-27T10:30:36.656Z,98722.78
2023-02-27T10:32:38.188Z,98733.91
2023-02-27T10:34:39.500Z,98729.69
2023-02-27T10:36:41.140Z,98728.94
2023-02-27T10:38:42.528Z,98723.91
2023-02-27T10:40:43.870Z,98724.00
2023-02-27T10:42:45.249Z,98734.25
2023-02-27T10:44:46.621Z,98725.75
2023-02-27T10:46:49.943Z,98733.47
2023-02-27T10:48:52.695Z,98729.25
2023-02-27T10:50:53.997Z,98731.00
2023-02-27T10:52:55.337Z,98723.41
2023-02-27T10:54:56.848Z,98733.63
2023-02-27T10:56:58.179Z,98726.00
2023-02-27T10:58:59.482Z,98728.53
2023-02-27T11:01:00.811Z,98724.31
2023-02-27T11:03:02.102Z,98724.31
2023-02-27T11:05:03.408Z,98724.34
2023-02-27T11:07:04.740Z,98728.66
2023-02-27T11:09:06.068Z,98727.81
2023-02-27T11:11:07.412Z,98716.78
2023-02-27T11:13:08.751Z,98720.19
2023-02-27T11:15:10.075Z,98719.38
2023-02-27T11:17:11.378Z,98727.91
2023-02-27T11:19:14.444Z,98718.53
2023-02-27T11:21:15.912Z,98719.38
2023-02-27T11:23:17.346Z,98716.81
2023-02-27T11:25:19.122Z,98716.81
2023-02-27T11:27:21.851Z,98711.69
2023-02-27T11:29:23.167Z,98711.59
2023-02-27T11:31:24.546Z,98701.34
2023-02-27T11:33:25.955Z,98711.47
2023-02-27T11:35:27.386Z,98706.25
2023-02-27T11:37:28.680Z,98705.28
2023-02-27T11:39:30.008Z,98698.38
2023-02-27T11:41:31.375Z,98699.16
2023-02-27T11:43:32.671Z,98698.22
2023-02-27T11:46:04.751Z,98693.94
2023-02-27T11:47:57.784Z,98699.00
2023-02-27T11:50:00.057Z,98698.97
2023-02-27T11:52:02.215Z,98695.63
2023-02-27T11:54:03.554Z,98696.47
2023-02-27T11:56:04.968Z,98694.81
2023-02-27T11:58:06.255Z,98699.94
2023-02-27T12:00:07.844Z,98699.16
2023-02-27T12:02:09.348Z,98698.34
2023-02-27T12:04:10.684Z,98702.72
2023-02-27T12:06:12.110Z,98696.84
2023-02-27T12:08:13.754Z,98703.69
2023-02-27T12:10:15.136Z,98699.47
2023-02-27T12:12:16.500Z,98701.22
2023-02-27T12:14:17.850Z,98702.97
2023-02-27T12:16:19.703Z,98694.50
2023-02-27T12:18:21.106Z,98697.09
2023-02-27T12:20:22.579Z,98703.91
2023-02-27T12:22:23.986Z,98694.56
2023-02-27T12:24:25.279Z,98699.72
2023-02-27T12:26:26.882Z,98699.75
2023-02-27T12:28:28.372Z,98702.38
2023-02-27T12:30:29.690Z,98704.97
2023-02-27T12:32:31.105Z,98703.28
2023-02-27T12:34:32.457Z,98712.66
2023-02-27T12:36:33.755Z,98701.59
2023-02-27T12:38:37.905Z,98705.88
2023-02-27T12:40:39.238Z,98703.31
2023-02-27T12:42:40.532Z,98705.88
2023-02-27T12:44:41.982Z,98709.28
2023-02-27T12:46:43.385Z,98708.41
2023-02-27T12:48:44.696Z,98709.22
2023-02-27T12:50:46.024Z,98706.59
2023-02-27T12:52:47.388Z,98705.69
2023-02-27T12:54:48.790Z,98707.28
2023-02-27T12:56:50.155Z,98715.69
2023-02-27T12:58:51.507Z,98713.88
2023-02-27T13:00:52.849Z,98710.34
2023-02-27T13:02:54.213Z,98712.88
2023-02-27T13:04:55.517Z,98706.03
2023-02-27T13:06:56.820Z,98707.75
2023-02-27T13:08:58.184Z,98707.81
2023-02-27T13:10:59.572Z,98713.84
2023-02-27T13:13:00.956Z,98718.28
2023-02-27T13:15:02.267Z,98712.44
2023-02-27T13:17:03.665Z,98709.97
2023-02-27T13:19:05.096Z,98708.31
2023-02-27T13:21:06.429Z,98708.31
2023-02-27T13:23:07.760Z,98702.38
2023-02-27T13:25:09.080Z,98705.75
2023-02-27T13:27:10.373Z,98707.47
2023-02-27T13:29:11.708Z,98709.22
2023-02-27T13:31:13.007Z,98710.09
2023-02-27T13:33:17.059Z,98714.44
2023-02-27T13:35:18.691Z,98711.88
2023-02-27T13:37:20.036Z,98709.34
2023-02-27T13:39:21.358Z,98710.22
2023-02-27T13:41:22.725Z,98706.84
2023-02-27T13:43:24.048Z,98711.09
2023-02-27T13:45:25.507Z,98708.53
2023-02-27T13:47:26.895Z,98711.94
2023-02-27T13:49:29.997Z,98711.09
2023-02-27T13:51:32.698Z,98713.63
2023-02-27T13:53:33.993Z,98713.63
2023-02-27T13:55:35.425Z,98703.44
2023-02-27T13:57:37.250Z,98719.56
2023-02-27T13:59:39.664Z,98711.88
2023-02-27T14:01:41.002Z,98716.97
2023-02-27T14:03:42.487Z,98711.00
2023-02-27T14:05:43.790Z,98728.00
2023-02-27T14:07:45.112Z,98718.59
2023-02-27T14:09:46.459Z,98719.38
2023-02-27T14:11:47.859Z,98713.38
2023-02-27T14:13:58.405Z,98716.72
2023-02-27T14:16:00.933Z,98715.84
2023-02-27T14:18:15.758Z,98721.78
2023-02-27T14:20:27.098Z,98721.78
2023-02-27T14:22:28.425Z,98723.47
2023-02-27T14:24:29.743Z,98725.19
2023-02-27T14:26:31.089Z,98727.75
2023-02-27T14:28:32.491Z,98726.06
2023-02-27T14:30:33.825Z,98726.06
2023-02-27T14:32:35.162Z,98721.00
2023-02-27T14:34:36.472Z,98727.81
2023-02-27T14:36:38.041Z,98726.16
2023-02-27T14:38:39.416Z,98725.31
2023-02-27T14:40:40.714Z,98730.44
2023-02-27T14:42:42.089Z,98727.06
2023-02-27T14:44:43.758Z,98727.97
2023-02-27T14:46:45.070Z,98742.50
2023-02-27T14:48:46.404Z,98734.84
2023-02-27T14:50:47.697Z,98735.75
2023-02-27T14:52:49.021Z,98727.25
2023-02-27T14:54:50.348Z,98735.75
2023-02-27T14:56:51.645Z,98728.13
2023-02-27T14:59:03.670Z,98731.56
2023-02-27T15:01:05.483Z,98731.56
2023-02-27T15:03:06.776Z,98732.44
2023-02-27T15:05:08.236Z,98738.44
2023-02-27T15:07:12.340Z,98746.09
2023-02-27T15:09:13.685Z,98754.63
2023-02-27T15:11:15.112Z,98752.94
2023-02-27T15:13:16.413Z,98746.97
2023-02-27T15:15:17.838Z,98748.66
2023-02-27T15:17:19.205Z,98757.16
2023-02-27T15:19:20.506Z,98752.91
2023-02-27T15:21:22.028Z,98758.81
2023-02-27T15:23:23.435Z,98760.47
2023-02-27T15:25:24.744Z,98762.19
2023-02-27T15:27:26.079Z,98755.31
2023-02-27T15:29:27.414Z,98754.44
2023-02-27T15:31:31.247Z,98753.53
2023-02-27T15:33:32.848Z,98754.31
2023-02-27T15:35:34.360Z,98755.94
2023-02-27T15:37:35.864Z,98766.09
2023-02-27T15:39:37.187Z,98762.66
2023-02-27T15:41:38.636Z,98768.56
2023-02-27T15:43:39.993Z,98768.56
2023-02-27T15:45:42.593Z,98765.19
2023-02-27T15:47:44.086Z,98766.88
2023-02-27T15:49:45.403Z,98774.59
2023-02-27T15:51:46.808Z,98770.38
2023-02-27T15:53:48.114Z,98773.81
2023-02-27T15:55:49.430Z,98778.09
2023-02-27T15:58:02.725Z,98779.81
2023-02-27T16:00:05.397Z,98785.78
2023-02-27T16:02:06.748Z,98790.94
2023-02-27T16:04:08.058Z,98785.88
2023-02-27T16:06:10.244Z,98785.88
2023-02-27T16:08:11.695Z,98793.59
2023-02-27T16:10:13.054Z,98793.66
2023-02-27T16:12:17.073Z,98795.38
2023-02-27T16:14:18.403Z,98797.94
2023-02-27T16:16:19.749Z,98654.97
2023-02-27T16:18:21.156Z,98804.84
2023-02-27T16:20:22.500Z,98804.00
2023-02-27T16:22:24.582Z,98805.72
2023-02-27T16:24:25.896Z,98800.59
2023-02-27T16:26:28.048Z,98804.88
2023-02-27T16:28:29.603Z,98807.47
2023-02-27T16:30:33.920Z,98810.03
2023-02-27T16:32:35.250Z,98804.91
2023-02-27T16:34:45.206Z,98816.84
2023-02-27T16:36:52.972Z,98809.16
2023-02-27T16:38:54.283Z,98812.56
2023-02-27T16:40:55.744Z,98818.50
2023-02-27T16:42:57.394Z,98823.59
2023-02-27T16:44:58.704Z,98824.38
2023-02-27T16:46:59.995Z,98825.19
2023-02-27T16:49:17.606Z,98723.63
2023-02-27T16:51:24.344Z,98823.41
2023-02-27T16:53:25.660Z,98824.19
2023-02-27T16:55:26.975Z,98830.94
2023-02-27T16:57:28.275Z,98841.94
2023-02-27T16:59:29.617Z,98837.59
2023-02-27T17:01:34.403Z,98837.56
2023-02-27T17:03:38.457Z,98832.44
2023-02-27T17:05:39.762Z,98836.66
2023-02-27T17:07:41.093Z,98829.00
2023-02-27T17:09:43.004Z,98827.31
2023-02-27T17:11:47.435Z,98841.81
2023-02-27T17:13:48.739Z,98838.44
2023-02-27T17:15:50.035Z,98843.59
2023-02-27T17:17:51.361Z,98840.25
2023-02-27T17:19:52.663Z,98844.56
2023-02-27T17:21:53.967Z,98840.34
2023-02-27T17:23:55.292Z,98842.06
2023-02-27T17:25:56.651Z,98848.09
2023-02-27T17:28:00.935Z,98844.72
2023-02-27T17:30:02.327Z,98851.56
2023-02-27T17:32:03.691Z,98858.41
2023-02-27T17:34:05.119Z,98855.03
2023-02-27T17:36:06.564Z,98855.94
2023-02-27T17:38:07.903Z,98857.63
2023-02-27T17:40:09.264Z,98850.00
2023-02-27T17:42:12.681Z,98850.88
2023-02-27T17:44:19.766Z,98858.56
2023-02-27T17:46:21.091Z,98854.31
2023-02-27T17:48:25.059Z,98858.59
2023-02-27T17:50:26.411Z,98856.91
2023-02-27T17:52:27.747Z,98856.91
2023-02-27T17:54:29.938Z,98856.06
2023-02-27T17:56:31.275Z,98860.31
2023-02-27T17:58:32.647Z,98852.59
2023-02-27T18:00:34.088Z,98849.78
2023-02-27T18:02:36.016Z,98853.00
2023-02-27T18:04:37.373Z,98854.66
2023-02-27T18:06:38.786Z,98851.25
2023-02-27T18:08:40.086Z,98851.13
2023-02-27T18:10:41.408Z,98859.50
2023-02-27T18:12:42.762Z,98859.06
2023-02-27T18:14:44.159Z,98851.50
2023-02-27T18:16:48.120Z,98856.38
2023-02-27T18:18:49.448Z,98860.50
2023-02-27T18:20:50.741Z,98861.16
2023-02-27T18:22:52.078Z,98864.72
2023-02-27T18:24:53.879Z,98861.44
2023-02-27T18:26:55.235Z,98859.78
2023-02-27T18:28:56.969Z,98853.72
2023-02-27T18:30:58.310Z,98864.47
2023-02-27T18:32:59.646Z,98859.00
2023-02-27T18:35:01.063Z,98859.75
2023-02-27T18:37:02.360Z,98711.28
2023-02-27T18:39:04.970Z,98858.97
2023-02-27T18:41:06.306Z,98855.00
2023-02-27T18:43:07.751Z,98857.16
2023-02-27T18:45:09.471Z,98859.91
2023-02-27T18:47:12.099Z,98860.00
2023-02-27T18:49:16.218Z,98860.94
2023-02-27T18:51:17.536Z,98864.38
2023-02-27T18:53:18.839Z,98863.38
2023-02-27T18:55:20.183Z,98857.84
2023-02-27T18:57:21.532Z,98862.25
2023-02-27T18:59:22.859Z,98860.03
2023-02-27T19:01:24.210Z,98857.41
2023-02-27T19:03:25.645Z,98859.56
2023-02-27T19:05:26.994Z,98864.41
2023-02-27T19:07:28.307Z,98865.88
2023-02-27T19:09:32.678Z,98863.88
2023-02-27T19:11:37.135Z,98863.56
2023-02-27T19:13:44.589Z,98859.50
2023-02-27T19:15:46.054Z,98862.66
2023-02-27T19:17:47.627Z,98860.09
2023-02-27T19:19:48.971Z,98859.06
2023-02-27T19:21:50.300Z,98862.81
2023-02-27T19:23:51.727Z,98873.13
2023-02-27T19:25:53.008Z,98869.25
2023-02-27T19:27:57.416Z,98865.94
2023-02-27T19:30:02.162Z,98869.94
2023-02-27T19:32:03.612Z,98869.22
2023-02-27T19:34:05.043Z,98870.88
2023-02-27T19:36:06.745Z,98873.97
2023-02-27T19:38:12.547Z,98882.84
2023-02-27T19:40:13.847Z,98880.81
2023-02-27T19:42:16.064Z,98881.13
2023-02-27T19:44:17.431Z,98878.25
2023-02-27T19:46:19.018Z,98883.78
2023-02-27T19:48:23.475Z,98877.03
2023-02-27T19:50:25.221Z,98885.00
2023-02-27T19:52:26.557Z,98882.84
2023-02-27T19:54:27.872Z,98887.03
2023-02-27T19:56:32.322Z,98887.88
2023-02-27T19:58:36.523Z,98889.41
2023-02-27T20:00:37.881Z,98888.59
2023-02-27T20:02:42.181Z,98884.28
2023-02-27T20:04:44.611Z,98887.44
2023-02-27T20:06:53.639Z,98898.63
2023-02-27T20:08:55.078Z,98891.03
2023-02-27T20:10:56.667Z,98897.00
2023-02-27T20:12:57.966Z,98897.88
2023-02-27T20:14:59.328Z,98891.22
2023-02-27T20:17:03.325Z,98894.31
2023-02-27T20:19:04.690Z,98898.91
2023-02-27T20:21:11.836Z,98894.69
2023-02-27T20:23:15.408Z,98900.44
2023-02-27T20:25:16.744Z,98901.13
2023-02-27T20:27:18.083Z,98897.66
2023-02-27T20:29:19.532Z,98903.59
2023-02-27T20:31:21.289Z,98900.13
2023-02-27T20:33:25.588Z,98900.09
2023-02-27T20:35:26.901Z,98895.81
2023-02-27T20:37:31.940Z,98898.75
2023-02-27T20:39:33.278Z,98896.59
2023-02-27T20:41:35.125Z,98895.53
2023-02-27T20:43:38.368Z,98895.38
2023-02-27T20:45:39.769Z,98896.19
2023-02-27T20:47:41.175Z,98897.94
2023-02-27T20:49:42.466Z,98898.81
2023-02-27T20:51:43.798Z,98894.38
2023-02-27T20:53:45.168Z,98902.91
2023-02-27T20:55:46.509Z,98902.06
2023-02-27T20:57:47.849Z,98898.25
2023-02-27T20:59:50.364Z,98895.34
2023-02-27T21:01:51.969Z,98902.16
2023-02-27T21:03:55.198Z,98901.78
2023-02-27T21:05:56.671Z,98897.28
2023-02-27T21:07:58.136Z,98898.91
2023-02-27T21:09:59.443Z,98904.88
2023-02-27T21:12:00.731Z,98903.84
2023-02-27T21:14:02.203Z,98897.09
2023-02-27T21:16:04.408Z,98901.47
2023-02-27T21:18:05.748Z,98897.22
2023-02-27T21:20:07.113Z,98894.94
2023-02-27T21:22:11.194Z,98904.47
2023-02-27T21:24:14.678Z,98902.78
2023-02-27T21:26:15.975Z,98906.28
2023-02-27T21:28:17.384Z,98909.75
2023-02-27T21:30:18.803Z,98908.97
2023-02-27T21:32:23.139Z,98904.81
2023-02-27T21:34:24.542Z,98909.47
2023-02-27T21:36:26.036Z,98908.97
2023-02-27T21:38:27.333Z,98912.91
2023-02-27T21:40:28.635Z,98910.78
2023-02-27T21:42:29.973Z,98907.25
2023-02-27T21:44:32.004Z,98904.56
2023-02-27T21:46:33.324Z,98907.03
2023-02-27T21:48:34.656Z,98905.31
2023-02-27T21:50:36.593Z,98905.31
2023-02-27T21:52:40.816Z,98904.50
2023-02-27T21:54:42.220Z,98913.81
2023-02-27T21:56:43.518Z,98906.16
2023-02-27T21:58:44.851Z,98908.78
2023-02-27T22:00:46.287Z,98910.50
2023-02-27T22:02:47.683Z,98909.63
2023-02-27T22:04:49.055Z,98907.88
2023-02-27T22:06:50.380Z,98911.50
2023-02-27T22:08:54.369Z,98908.69
2023-02-27T22:10:55.664Z,98914.38
2023-02-27T22:12:57.003Z,98911.06
2023-02-27T22:14:58.300Z,98912.00
2023-02-27T22:16:59.703Z,98911.25
2023-02-27T22:19:00.998Z,98915.72
2023-02-27T22:21:02.301Z,98917.81
2023-02-27T22:23:07.987Z,98912.13
2023-02-27T22:25:09.327Z,98926.34
2023-02-27T22:27:10.722Z,98925.59
2023-02-27T22:29:12.072Z,98929.63
2023-02-27T22:31:13.446Z,98920.66
2023-02-27T22:33:15.731Z,98931.47
2023-02-27T22:35:17.030Z,98922.69
2023-02-27T22:37:19.824Z,98920.81
2023-02-27T22:39:21.475Z,98918.09
2023-02-27T22:41:23.724Z,98925.63
2023-02-27T22:43:25.029Z,98919.53
2023-02-27T22:45:26.392Z,98918.66
2023-02-27T22:47:27.719Z,98919.44
2023-02-27T22:49:29.024Z,98915.09
2023-02-27T22:51:30.760Z,98918.47
2023-02-27T22:53:38.418Z,98920.13
2023-02-27T22:55:39.736Z,98917.56
2023-02-27T22:57:41.087Z,98916.72
2023-02-27T22:59:42.564Z,98915.06
2023-02-27T23:01:43.916Z,98912.53
2023-02-27T23:03:45.381Z,98916.88
2023-02-27T23:05:46.744Z,98919.50
2023-02-27T23:07:48.025Z,98917.84
2023-02-27T23:09:49.335Z,98923.00
2023-02-27T23:11:50.636Z,98923.03
2023-02-27T23:13:51.933Z,98920.53
2023-02-27T23:15:53.228Z,98925.66
2023-02-27T23:17:58.425Z,98924.84
2023-02-27T23:19:59.947Z,98931.75
2023-02-27T23:22:01.243Z,98926.66
2023-02-27T23:24:02.913Z,98925.84
2023-02-27T23:26:04.274Z,98921.66
2023-02-27T23:28:05.569Z,98927.69
2023-02-27T23:30:07.084Z,98930.25
2023-02-27T23:32:08.443Z,98926.06
2023-02-27T23:34:09.837Z,98931.25
2023-02-27T23:36:11.204Z,98926.97
2023-02-27T23:38:12.498Z,98930.41
2023-02-27T23:40:13.804Z,98927.00
2023-02-27T23:42:15.750Z,98933.84
2023-02-27T23:44:17.042Z,98936.41
2023-02-27T23:46:18.379Z,98927.03
2023-02-27T23:48:21.952Z,98942.41
2023-02-27T23:50:23.264Z,98939.03